Novoselenginsk, Russia
Current Conditions -  °F | °C
As of 3:00 PM on Sunday 23 Nov 2014 (Local Time) from UIUU Reporting Station
Few Clouds Few Clouds  
Wind Chill: 14°   Ceiling: Unl
Heat Index: 14°   Visibility: 6mi
Dew Point:   Wind: 2mph
Humidity: 57%   Direction: NA
Pressure: 30.18"   Gusts: NA
Location:  51.09°N, 106.63°E
Report Text: UIUU 230700Z VRB01MPS 9999 FEW100 M10/M17 Q1022 NOSIG RMKQFE722/0963 26410560
Loading
Personal Weather Stations






























Interactive Weather Map New forecast layout! Learn more

10-Day Weather Forecast

Advertisements
Track Severe Weather on mobile